createdAt,value
2016-09-05T00:00:20.387Z,0
2016-09-05T00:00:59.788Z,0
2016-09-05T00:02:00.502Z,0
2016-09-05T00:03:00.365Z,0
2016-09-05T00:04:00.415Z,0
2016-09-05T00:04:58.884Z,0
2016-09-05T00:05:59.618Z,0
2016-09-05T00:07:04.466Z,0
2016-09-05T00:07:58.790Z,0
2016-09-05T00:08:59.081Z,0
2016-09-05T00:09:59.511Z,0
2016-09-05T00:10:58.739Z,0
2016-09-05T00:11:58.740Z,0
2016-09-05T00:12:58.817Z,0
2016-09-05T00:14:19.177Z,0
2016-09-05T00:14:58.955Z,0
2016-09-05T00:15:58.672Z,0
2016-09-05T00:16:59.019Z,0
2016-09-05T00:18:00.235Z,0
2016-09-05T00:18:59.304Z,0
2016-09-05T00:19:58.921Z,0
2016-09-05T00:21:59.197Z,0
2016-09-05T00:23:13.453Z,0
2016-09-05T00:23:58.617Z,0
2016-09-05T00:25:13.085Z,0
2016-09-05T00:25:59.105Z,0
2016-09-05T00:26:58.609Z,0
2016-09-05T00:27:59.341Z,0
2016-09-05T00:28:58.282Z,0
2016-09-05T00:29:58.332Z,0
2016-09-05T00:30:59.121Z,0
2016-09-05T00:32:58.432Z,0
2016-09-05T00:34:59.618Z,0
2016-09-05T00:35:59.246Z,0
2016-09-05T00:36:58.843Z,0
2016-09-05T00:38:13.635Z,0
2016-09-05T00:38:58.278Z,0
2016-09-05T00:39:58.955Z,0
2016-09-05T00:40:57.974Z,0
2016-09-05T00:41:58.135Z,0
2016-09-05T00:42:57.958Z,0
2016-09-05T00:43:57.878Z,0
2016-09-05T00:44:58.924Z,0
2016-09-05T00:45:58.030Z,0
2016-09-05T00:46:58.733Z,0
2016-09-05T00:47:58.544Z,0
2016-09-05T00:48:59.536Z,0
2016-09-05T00:49:58.504Z,0
2016-09-05T00:51:12.923Z,0
2016-09-05T00:51:58.770Z,0
2016-09-05T00:52:57.696Z,0
2016-09-05T00:53:57.611Z,0
2016-09-05T00:54:57.589Z,0
2016-09-05T00:55:57.548Z,0
2016-09-05T00:56:58.125Z,0
2016-09-05T00:57:58.718Z,0
2016-09-05T00:58:58.275Z,0
2016-09-05T01:00:12.288Z,0
2016-09-05T01:00:57.516Z,0
2016-09-05T01:02:12.186Z,0
2016-09-05T01:02:57.788Z,0
2016-09-05T01:03:58.190Z,0
2016-09-05T01:04:57.500Z,0
2016-09-05T01:05:57.325Z,0
2016-09-05T01:06:57.392Z,0
2016-09-05T01:07:57.271Z,0
2016-09-05T01:08:57.531Z,0
2016-09-05T01:09:57.188Z,0
2016-09-05T01:10:57.349Z,0
2016-09-05T01:11:57.236Z,0
2016-09-05T01:13:11.900Z,0
2016-09-05T01:13:57.275Z,0
2016-09-05T01:14:58.544Z,0
2016-09-05T01:15:57.037Z,0
2016-09-05T01:16:57.810Z,0
2016-09-05T01:17:57.752Z,0
2016-09-05T01:18:57.742Z,0
2016-09-05T01:19:57.064Z,0
2016-09-05T01:20:57.384Z,0
2016-09-05T01:22:11.625Z,0
2016-09-05T01:22:56.912Z,0
2016-09-05T01:24:11.547Z,0
2016-09-05T01:24:56.908Z,0
2016-09-05T01:26:11.703Z,0
2016-09-05T01:26:57.073Z,0
2016-09-05T01:27:57.749Z,0
2016-09-05T01:28:56.742Z,0
2016-09-05T01:29:56.837Z,0
2016-09-05T01:30:56.654Z,0
2016-09-05T01:31:56.652Z,0
2016-09-05T01:33:56.674Z,0
2016-09-05T01:34:58.274Z,0
2016-09-05T01:35:58.039Z,0
2016-09-05T01:36:56.951Z,0
2016-09-05T01:37:57.236Z,0
2016-09-05T01:38:57.521Z,0
2016-09-05T01:39:56.424Z,0
2016-09-05T01:40:56.464Z,0
2016-09-05T01:41:57.160Z,0
2016-09-05T01:42:56.338Z,0
2016-09-05T01:43:56.335Z,0
2016-09-05T01:44:57.512Z,0
2016-09-05T01:45:56.271Z,0
2016-09-05T01:46:56.267Z,0
2016-09-05T01:47:56.242Z,0
2016-09-05T01:48:56.218Z,0
2016-09-05T01:49:56.192Z,0
2016-09-05T01:50:56.648Z,0
2016-09-05T01:52:02.503Z,0
2016-09-05T01:52:56.150Z,0
2016-09-05T01:53:56.075Z,0
2016-09-05T01:54:56.043Z,0
2016-09-05T01:55:56.027Z,0
2016-09-05T01:56:56.309Z,0
2016-09-05T01:57:56.786Z,0
2016-09-05T01:58:56.781Z,0
2016-09-05T01:59:55.954Z,0
2016-09-05T02:00:55.882Z,0
2016-09-05T02:01:56.789Z,0
2016-09-05T02:03:10.829Z,0
2016-09-05T02:03:56.754Z,0
2016-09-05T02:04:56.039Z,0
2016-09-05T02:05:56.469Z,0
2016-09-05T02:06:55.840Z,0
2016-09-05T02:07:55.741Z,0
2016-09-05T02:08:56.003Z,0
2016-09-05T02:09:55.713Z,0
2016-09-05T02:10:55.991Z,0
2016-09-05T02:11:55.595Z,0
2016-09-05T02:12:55.735Z,0
2016-09-05T02:13:55.630Z,0
2016-09-05T02:14:56.815Z,0
2016-09-05T02:15:55.586Z,0
2016-09-05T02:16:55.571Z,0
2016-09-05T02:17:56.221Z,0
2016-09-05T02:18:56.236Z,0
2016-09-05T02:19:55.647Z,0
2016-09-05T02:20:56.431Z,0
2016-09-05T02:21:55.594Z,0
2016-09-05T02:23:10.026Z,0
2016-09-05T02:23:55.304Z,0
2016-09-05T02:24:55.479Z,0
2016-09-05T02:25:55.314Z,0
2016-09-05T02:26:55.515Z,0
2016-09-05T02:28:01.075Z,0
2016-09-05T02:28:55.918Z,0
2016-09-05T02:29:55.410Z,0
2016-09-05T02:30:55.892Z,0
2016-09-05T02:31:55.079Z,0
2016-09-05T02:32:55.378Z,0
2016-09-05T02:33:55.306Z,0
2016-09-05T02:34:55.114Z,0
2016-09-05T02:35:56.246Z,0
2016-09-05T02:37:10.391Z,0
2016-09-05T02:37:54.933Z,0
2016-09-05T02:39:10.495Z,0
2016-09-05T02:39:54.866Z,0
2016-09-05T02:40:55.591Z,0
2016-09-05T02:41:56.020Z,0
2016-09-05T02:42:55.600Z,0
2016-09-05T02:44:10.367Z,0
2016-09-05T02:44:55.106Z,0
2016-09-05T02:46:10.213Z,0
2016-09-05T02:46:56.186Z,0
2016-09-05T02:47:54.809Z,0
2016-09-05T02:48:54.681Z,0
2016-09-05T02:49:55.427Z,0
2016-09-05T02:50:55.978Z,0
2016-09-05T02:51:55.394Z,0
2016-09-05T02:52:55.606Z,0
2016-09-05T02:53:56.035Z,0
2016-09-05T02:54:54.627Z,0
2016-09-05T02:55:55.238Z,0
2016-09-05T02:56:56.368Z,0
2016-09-05T02:57:54.454Z,0
2016-09-05T02:58:54.626Z,0
2016-09-05T02:59:55.103Z,0
2016-09-05T03:01:55.230Z,0
2016-09-05T03:02:55.807Z,0
2016-09-05T03:03:55.371Z,0
2016-09-05T03:04:55.127Z,0
2016-09-05T03:05:54.428Z,0
2016-09-05T03:06:54.176Z,0
2016-09-05T03:07:55.688Z,0
2016-09-05T03:08:54.761Z,0
2016-09-05T03:09:54.343Z,0
2016-09-05T03:10:54.197Z,0
2016-09-05T03:12:09.557Z,0
2016-09-05T03:12:55.234Z,0
2016-09-05T03:13:54.080Z,0
2016-09-05T03:14:54.292Z,0
2016-09-05T03:15:55.309Z,0
2016-09-05T03:16:54.813Z,0
2016-09-05T03:17:53.996Z,0
2016-09-05T03:18:54.086Z,0
2016-09-05T03:19:54.773Z,0
2016-09-05T03:21:09.149Z,0
2016-09-05T03:21:54.216Z,0
2016-09-05T03:22:54.619Z,0
2016-09-05T03:23:53.739Z,0
2016-09-05T03:24:54.369Z,0
2016-09-05T03:25:53.757Z,0
2016-09-05T03:26:54.342Z,0
2016-09-05T03:27:54.727Z,0
2016-09-05T03:28:54.854Z,0
2016-09-05T03:29:54.378Z,0
2016-09-05T03:30:54.476Z,0
2016-09-05T03:32:09.394Z,0
2016-09-05T03:32:55.129Z,0
2016-09-05T03:33:55.192Z,0
2016-09-05T03:34:54.981Z,0
2016-09-05T03:35:54.447Z,0
2016-09-05T03:36:53.470Z,0
2016-09-05T03:37:54.272Z,0
2016-09-05T03:38:55.335Z,0
2016-09-05T03:39:53.396Z,0
2016-09-05T03:40:53.316Z,0
2016-09-05T03:42:53.303Z,0
2016-09-05T03:43:54.745Z,0
2016-09-05T03:44:53.595Z,0
2016-09-05T03:45:53.190Z,0
2016-09-05T03:46:54.693Z,0
2016-09-05T03:47:53.205Z,0
2016-09-05T03:48:53.107Z,0
2016-09-05T03:49:54.652Z,0
2016-09-05T03:50:53.355Z,0
2016-09-05T03:51:53.847Z,0
2016-09-05T03:52:53.038Z,0
2016-09-05T03:53:53.333Z,0
2016-09-05T03:54:53.139Z,0
2016-09-05T03:55:52.987Z,0
2016-09-05T03:56:53.186Z,0
2016-09-05T03:58:08.358Z,0
2016-09-05T03:58:52.820Z,0
2016-09-05T03:59:52.800Z,0
2016-09-05T04:01:53.532Z,0
2016-09-05T04:02:53.965Z,0
2016-09-05T04:03:53.457Z,0
2016-09-05T04:05:08.308Z,0
2016-09-05T04:05:52.651Z,0
2016-09-05T04:07:07.419Z,0
2016-09-05T04:07:53.370Z,0
2016-09-05T04:09:07.608Z,0
2016-09-05T04:09:54.439Z,0
2016-09-05T04:10:54.519Z,0
2016-09-05T04:12:53.243Z,0
2016-09-05T04:13:53.287Z,0
2016-09-05T04:14:52.751Z,0
2016-09-05T04:15:52.622Z,0
2016-09-05T04:16:53.744Z,0
2016-09-05T04:17:53.395Z,0
2016-09-05T04:18:52.486Z,0
2016-09-05T04:19:53.770Z,0
2016-09-05T04:20:52.585Z,0
2016-09-05T04:21:53.064Z,0
2016-09-05T04:22:53.016Z,0
2016-09-05T04:23:53.055Z,0
2016-09-05T04:24:52.990Z,0
2016-09-05T04:25:52.884Z,0
2016-09-05T04:26:52.401Z,0
2016-09-05T04:27:52.088Z,0
2016-09-05T04:28:52.081Z,0
2016-09-05T04:29:53.091Z,0
2016-09-05T04:30:52.379Z,0
2016-09-05T04:31:52.086Z,0
2016-09-05T04:32:52.429Z,0
2016-09-05T04:33:53.438Z,0
2016-09-05T04:35:07.173Z,0
2016-09-05T04:35:52.018Z,0
2016-09-05T04:37:06.915Z,0
2016-09-05T04:37:52.237Z,0
2016-09-05T04:38:52.380Z,0
2016-09-05T04:39:52.077Z,0
2016-09-05T04:40:52.583Z,0
2016-09-05T04:41:52.502Z,0
2016-09-05T04:42:51.738Z,0
2016-09-05T04:43:51.653Z,0
2016-09-05T04:44:52.065Z,0
2016-09-05T04:46:07.244Z,0
2016-09-05T04:46:51.604Z,0
2016-09-05T04:47:52.410Z,0
2016-09-05T04:48:51.789Z,0
2016-09-05T04:50:08.054Z,0
2016-09-05T04:50:53.423Z,0
2016-09-05T04:52:08.735Z,0
2016-09-05T04:53:06.515Z,0
2016-09-05T04:53:51.393Z,0
2016-09-05T04:55:06.170Z,0
2016-09-05T04:55:51.705Z,0
2016-09-05T04:56:52.092Z,0
2016-09-05T04:57:51.321Z,0
2016-09-05T04:58:51.522Z,0
2016-09-05T04:59:51.329Z,0
2016-09-05T05:00:51.215Z,0
2016-09-05T05:01:51.587Z,0
2016-09-05T05:02:51.937Z,0
2016-09-05T05:03:51.989Z,0
2016-09-05T05:05:51.214Z,0
2016-09-05T05:06:52.313Z,0
2016-09-05T05:07:51.591Z,0
2016-09-05T05:08:51.045Z,0
2016-09-05T05:10:05.724Z,0
2016-09-05T05:10:51.045Z,0
2016-09-05T05:11:51.690Z,0
2016-09-05T05:12:50.938Z,0
2016-09-05T05:14:06.687Z,0
2016-09-05T05:14:54.265Z,0
2016-09-05T05:16:05.592Z,0
2016-09-05T05:16:50.989Z,0
2016-09-05T05:18:06.270Z,0
2016-09-05T05:18:53.030Z,0
2016-09-05T05:19:51.614Z,0
2016-09-05T05:20:51.041Z,0
2016-09-05T05:22:51.775Z,0
2016-09-05T05:23:50.659Z,0
2016-09-05T05:24:50.609Z,0
2016-09-05T05:25:50.864Z,0
2016-09-05T05:26:51.339Z,0
2016-09-05T05:27:51.299Z,0
2016-09-05T05:28:50.524Z,0
2016-09-05T05:29:52.807Z,0
2016-09-05T05:30:50.551Z,0
2016-09-05T05:31:50.790Z,0
2016-09-05T05:32:50.393Z,0
2016-09-05T05:33:51.896Z,0
2016-09-05T05:35:05.833Z,0
2016-09-05T05:36:19.745Z,0
2016-09-05T05:36:51.073Z,0
2016-09-05T05:38:05.008Z,0
2016-09-05T05:38:51.821Z,0
2016-09-05T05:39:50.981Z,0
2016-09-05T05:40:50.200Z,0
2016-09-05T05:41:51.726Z,0
2016-09-05T05:43:50.421Z,0
2016-09-05T05:45:05.252Z,0
2016-09-05T05:45:50.081Z,0
2016-09-05T05:46:50.207Z,0
2016-09-05T05:47:50.100Z,0
2016-09-05T05:48:51.487Z,0
2016-09-05T05:49:51.873Z,0
2016-09-05T05:50:50.744Z,0
2016-09-05T05:51:49.898Z,0
2016-09-05T05:52:50.732Z,0
2016-09-05T05:54:19.418Z,0
2016-09-05T05:54:50.346Z,0
2016-09-05T05:55:50.960Z,0
2016-09-05T05:56:50.715Z,0
2016-09-05T05:57:50.953Z,0
2016-09-05T05:58:51.297Z,0
2016-09-05T05:59:50.930Z,0
2016-09-05T06:01:50.007Z,0
2016-09-05T06:03:04.859Z,0
2016-09-05T06:03:49.603Z,0
2016-09-05T06:04:50.418Z,0
2016-09-05T06:05:49.539Z,0
2016-09-05T06:06:49.950Z,0
2016-09-05T06:07:50.256Z,0
2016-09-05T06:09:04.241Z,0
2016-09-05T06:09:49.971Z,0
2016-09-05T06:11:04.112Z,0
2016-09-05T06:13:04.073Z,0
2016-09-05T06:14:06.101Z,0
2016-09-05T06:15:04.009Z,0
2016-09-05T06:16:05.633Z,0
2016-09-05T06:16:49.333Z,0
2016-09-05T06:17:50.115Z,0
2016-09-05T06:18:49.312Z,5
2016-09-05T06:20:05.008Z,0
2016-09-05T06:21:04.634Z,0
2016-09-05T06:22:04.646Z,5
2016-09-05T06:23:04.864Z,0
2016-09-05T06:23:49.179Z,5
2016-09-05T06:25:05.480Z,5
2016-09-05T06:25:50.401Z,0
2016-09-05T06:26:49.006Z,5
2016-09-05T06:27:50.531Z,5
2016-09-05T06:28:50.462Z,5
2016-09-05T06:29:50.093Z,5
2016-09-05T06:30:49.693Z,5
2016-09-05T06:31:49.923Z,5
2016-09-05T06:32:48.980Z,0
2016-09-05T06:33:56.637Z,0
2016-09-05T06:34:50.470Z,0
2016-09-05T06:36:03.485Z,0
2016-09-05T06:36:48.753Z,0
2016-09-05T06:37:48.995Z,0
2016-09-05T06:38:50.223Z,0
2016-09-05T06:39:50.554Z,5
2016-09-05T06:40:48.781Z,5
2016-09-05T06:41:48.600Z,5
2016-09-05T06:42:49.349Z,5
2016-09-05T06:43:48.887Z,5
2016-09-05T06:44:48.585Z,10
2016-09-05T06:45:48.510Z,10
2016-09-05T06:46:49.219Z,15
2016-09-05T06:47:48.505Z,15
2016-09-05T06:48:49.957Z,15
2016-09-05T06:49:51.369Z,15
2016-09-05T06:51:48.420Z,10
2016-09-05T06:52:49.826Z,5
2016-09-05T06:53:48.315Z,5
2016-09-05T06:55:02.979Z,5
2016-09-05T06:55:48.774Z,5
2016-09-05T06:56:48.986Z,5
2016-09-05T06:57:48.177Z,5
2016-09-05T06:58:48.914Z,0
2016-09-05T07:00:03.743Z,5
2016-09-05T07:00:48.107Z,0
2016-09-05T07:01:49.182Z,0
2016-09-05T07:02:48.057Z,0
2016-09-05T07:04:02.855Z,0
2016-09-05T07:04:50.594Z,0
2016-09-05T07:06:19.098Z,0
2016-09-05T07:06:48.079Z,0
2016-09-05T07:08:02.927Z,0
2016-09-05T07:08:48.738Z,5
2016-09-05T07:09:49.446Z,5
2016-09-05T07:10:47.867Z,5
2016-09-05T07:11:47.824Z,5
2016-09-05T07:12:47.854Z,5
2016-09-05T07:13:48.098Z,10
2016-09-05T07:15:49.343Z,15
2016-09-05T07:16:48.059Z,20
2016-09-05T07:17:47.810Z,15
2016-09-05T07:18:48.459Z,15
2016-09-05T07:19:48.757Z,15
2016-09-05T07:20:47.608Z,10
2016-09-05T07:21:47.623Z,15
2016-09-05T07:22:47.570Z,15
2016-09-05T07:23:48.273Z,15
2016-09-05T07:24:49.134Z,15
2016-09-05T07:25:47.875Z,15
2016-09-05T07:26:48.252Z,20
2016-09-05T07:27:47.412Z,20
2016-09-05T07:29:48.307Z,15
2016-09-05T07:30:47.423Z,15
2016-09-05T07:31:48.558Z,20
2016-09-05T07:32:48.858Z,20
2016-09-05T07:34:03.510Z,15
2016-09-05T07:36:47.941Z,20
2016-09-05T07:37:48.484Z,20
2016-09-05T07:38:48.641Z,20
2016-09-05T07:39:47.230Z,20
2016-09-05T07:40:48.088Z,15
2016-09-05T07:41:47.102Z,15
2016-09-05T07:42:47.832Z,10
2016-09-05T07:43:47.798Z,15
2016-09-05T07:45:48.103Z,20
2016-09-05T07:46:47.810Z,20
2016-09-05T07:47:46.936Z,15
2016-09-05T07:48:46.861Z,15
2016-09-05T07:50:17.510Z,15
2016-09-05T07:50:47.621Z,15
2016-09-05T07:52:02.433Z,15
2016-09-05T07:52:46.785Z,20
2016-09-05T07:53:47.529Z,20
2016-09-05T07:54:47.665Z,20
2016-09-05T07:55:48.105Z,15
2016-09-05T07:56:46.826Z,15
2016-09-05T07:57:47.838Z,10
2016-09-05T07:58:48.101Z,10
2016-09-05T07:59:46.630Z,10
2016-09-05T08:01:01.303Z,15
2016-09-05T08:01:46.971Z,15
2016-09-05T08:02:46.697Z,15
2016-09-05T08:03:47.294Z,15
2016-09-05T08:04:46.558Z,10
2016-09-05T08:06:01.240Z,10
2016-09-05T08:06:46.419Z,10
2016-09-05T08:08:02.196Z,15
2016-09-05T08:09:01.224Z,15
2016-09-05T08:10:01.075Z,15
2016-09-05T08:10:46.389Z,20
2016-09-05T08:11:46.369Z,20
2016-09-05T08:12:47.822Z,15
2016-09-05T08:13:46.654Z,15
2016-09-05T08:14:46.381Z,15
2016-09-05T08:15:47.855Z,15
2016-09-05T08:16:46.276Z,20
2016-09-05T08:17:47.873Z,25
2016-09-05T08:19:02.577Z,35
2016-09-05T08:20:47.166Z,35
2016-09-05T08:21:46.843Z,25
2016-09-05T08:23:00.774Z,25
2016-09-05T08:23:46.784Z,25
2016-09-05T08:24:47.683Z,20
2016-09-05T08:25:47.019Z,20
2016-09-05T08:26:46.023Z,15
2016-09-05T08:27:47.416Z,15
2016-09-05T08:28:46.638Z,15
2016-09-05T08:29:47.415Z,20
2016-09-05T08:30:45.817Z,20
2016-09-05T08:32:00.910Z,20
2016-09-05T08:32:45.822Z,15
2016-09-05T08:34:01.239Z,20
2016-09-05T08:34:46.627Z,25
2016-09-05T08:35:46.547Z,20
2016-09-05T08:36:47.208Z,20
2016-09-05T08:37:45.943Z,15
2016-09-05T08:38:45.682Z,10
2016-09-05T08:39:45.658Z,10
2016-09-05T08:40:45.579Z,20
2016-09-05T08:41:46.302Z,15
2016-09-05T08:42:46.449Z,10
2016-09-05T08:43:47.354Z,15
2016-09-05T08:45:00.387Z,20
2016-09-05T08:45:45.624Z,20
2016-09-05T08:47:00.204Z,25
2016-09-05T08:47:46.184Z,25
2016-09-05T08:48:46.179Z,25
2016-09-05T08:49:48.116Z,35
2016-09-05T08:50:46.143Z,30
2016-09-05T08:51:46.076Z,25
2016-09-05T08:52:45.284Z,20
2016-09-05T08:53:46.207Z,20
2016-09-05T08:54:45.306Z,25
2016-09-05T08:55:46.691Z,25
2016-09-05T08:56:45.167Z,25
2016-09-05T08:58:00.599Z,20
2016-09-05T08:58:46.780Z,20
2016-09-05T08:59:45.048Z,20
2016-09-05T09:00:45.067Z,15
2016-09-05T09:01:45.870Z,20
2016-09-05T09:02:46.227Z,25
2016-09-05T09:03:45.034Z,20
2016-09-05T09:04:45.074Z,25
2016-09-05T09:05:44.984Z,35
2016-09-05T09:06:46.644Z,30
2016-09-05T09:08:01.387Z,30
2016-09-05T09:08:44.860Z,30
2016-09-05T09:09:45.617Z,30
2016-09-05T09:10:59.601Z,30
2016-09-05T09:11:44.922Z,30
2016-09-05T09:12:45.520Z,25
2016-09-05T09:13:46.617Z,20
2016-09-05T09:14:45.470Z,20
2016-09-05T09:15:59.398Z,20
2016-09-05T09:16:45.473Z,25
2016-09-05T09:17:44.692Z,25
2016-09-05T09:18:46.148Z,25
2016-09-05T09:19:45.047Z,30
2016-09-05T09:20:44.683Z,30
2016-09-05T09:21:44.570Z,35
2016-09-05T09:22:45.320Z,25
2016-09-05T09:23:44.507Z,25
2016-09-05T09:24:45.298Z,20
2016-09-05T09:25:44.502Z,35
2016-09-05T09:27:00.015Z,30
2016-09-05T09:27:45.243Z,30
2016-09-05T09:28:45.148Z,30
2016-09-05T09:29:45.845Z,25
2016-09-05T09:30:44.299Z,25
2016-09-05T09:31:45.584Z,30
2016-09-05T09:32:44.256Z,30
2016-09-05T09:33:44.316Z,30
2016-09-05T09:34:44.260Z,35
2016-09-05T09:35:44.330Z,40
2016-09-05T09:36:45.257Z,25
2016-09-05T09:37:44.409Z,20
2016-09-05T09:38:44.112Z,20
2016-09-05T09:39:44.917Z,30
2016-09-05T09:41:13.507Z,30
2016-09-05T09:41:44.854Z,40
2016-09-05T09:42:44.022Z,35
2016-09-05T09:43:44.281Z,40
2016-09-05T09:44:58.743Z,25
2016-09-05T09:46:51.013Z,25
2016-09-05T09:47:46.413Z,40
2016-09-05T09:48:43.877Z,30
2016-09-05T09:49:44.315Z,25
2016-09-05T09:50:44.908Z,25
2016-09-05T09:51:44.770Z,25
2016-09-05T09:52:44.732Z,30
2016-09-05T09:54:44.466Z,30
2016-09-05T09:56:00.268Z,40
2016-09-05T09:56:46.164Z,35
2016-09-05T09:57:43.754Z,40
2016-09-05T09:58:45.175Z,40
2016-09-05T09:59:44.435Z,40
2016-09-05T10:00:44.338Z,35
2016-09-05T10:01:45.363Z,20
2016-09-05T10:02:59.933Z,15
2016-09-05T10:03:43.553Z,15
2016-09-05T10:04:43.496Z,15
2016-09-05T10:05:44.265Z,15
2016-09-05T10:06:44.230Z,20
2016-09-05T10:07:43.698Z,25
2016-09-05T10:08:44.213Z,25
2016-09-05T10:09:44.109Z,25
2016-09-05T10:10:44.099Z,25
2016-09-05T10:11:58.781Z,25
2016-09-05T10:12:44.055Z,30
2016-09-05T10:13:59.148Z,25
2016-09-05T10:14:44.069Z,20
2016-09-05T10:15:43.202Z,20
2016-09-05T10:16:44.386Z,20
2016-09-05T10:17:43.965Z,20
2016-09-05T10:18:43.928Z,25
2016-09-05T10:19:44.198Z,25
2016-09-05T10:20:57.863Z,25
2016-09-05T10:21:44.652Z,30
2016-09-05T10:22:58.866Z,35
2016-09-05T10:23:43.978Z,30
2016-09-05T10:24:57.890Z,20
2016-09-05T10:25:43.587Z,20
2016-09-05T10:26:57.694Z,20
2016-09-05T10:27:43.652Z,20
2016-09-05T10:28:57.631Z,20
2016-09-05T10:29:43.664Z,25
2016-09-05T10:30:42.897Z,30
2016-09-05T10:31:44.641Z,45
2016-09-05T10:32:43.566Z,55
2016-09-05T10:33:44.925Z,50
2016-09-05T10:34:42.710Z,45
2016-09-05T10:35:42.836Z,45
2016-09-05T10:36:42.706Z,40
2016-09-05T10:37:43.047Z,35
2016-09-05T10:38:43.446Z,25
2016-09-05T10:39:42.645Z,20
2016-09-05T10:40:43.340Z,20
2016-09-05T10:41:43.381Z,20
2016-09-05T10:42:43.397Z,20
2016-09-05T10:43:44.448Z,25
2016-09-05T10:44:44.435Z,35
2016-09-05T10:45:42.786Z,35
2016-09-05T10:46:44.280Z,30
2016-09-05T10:47:43.653Z,40
2016-09-05T10:48:42.608Z,45
2016-09-05T10:49:42.753Z,30
2016-09-05T10:50:57.089Z,30
2016-09-05T10:51:42.345Z,30
2016-09-05T10:52:43.064Z,30
2016-09-05T10:53:42.288Z,30
2016-09-05T10:54:42.247Z,25
2016-09-05T10:55:42.534Z,35
2016-09-05T10:56:43.047Z,30
2016-09-05T10:58:43.345Z,35
2016-09-05T10:59:58.460Z,55
2016-09-05T11:00:57.018Z,50
2016-09-05T11:01:59.306Z,40
2016-09-05T11:02:42.895Z,45
2016-09-05T11:03:58.055Z,40
2016-09-05T11:04:42.795Z,35
2016-09-05T11:05:41.970Z,35
2016-09-05T11:06:42.279Z,35
2016-09-05T11:07:42.349Z,45
2016-09-05T11:08:41.916Z,45
2016-09-05T11:09:42.129Z,40
2016-09-05T11:10:41.856Z,40
2016-09-05T11:11:44.405Z,35
2016-09-05T11:12:43.576Z,30
2016-09-05T11:13:43.268Z,30
2016-09-05T11:16:14.913Z,35
2016-09-05T11:16:42.760Z,35
2016-09-05T11:17:45.440Z,35
2016-09-05T11:18:42.770Z,40
2016-09-05T11:21:13.401Z,40
2016-09-05T11:21:59.502Z,45
2016-09-05T11:22:56.604Z,50
2016-09-05T11:23:57.589Z,50
2016-09-05T11:24:41.669Z,50
2016-09-05T11:25:41.893Z,45
2016-09-05T11:26:43.418Z,50
2016-09-05T11:27:42.283Z,50
2016-09-05T11:29:43.106Z,50
2016-09-05T11:30:57.716Z,50
2016-09-05T11:31:45.967Z,60
2016-09-05T11:32:57.554Z,50
2016-09-05T11:33:42.044Z,50
2016-09-05T11:34:42.065Z,50
2016-09-05T11:35:42.033Z,50
2016-09-05T11:36:41.229Z,50
2016-09-05T11:37:43.038Z,50
2016-09-05T11:38:42.105Z,45
2016-09-05T11:39:42.731Z,40
2016-09-05T11:40:42.045Z,35
2016-09-05T11:41:56.648Z,40
2016-09-05T11:42:41.886Z,85
2016-09-05T11:43:41.405Z,45
2016-09-05T11:44:41.181Z,35
2016-09-05T11:45:41.937Z,30
2016-09-05T11:46:41.787Z,35
2016-09-05T11:47:40.928Z,40
2016-09-05T11:49:40.512Z,55
2016-09-05T11:51:09.320Z,75
2016-09-05T11:52:41.597Z,50
2016-09-05T11:53:23.960Z,45
2016-09-05T11:53:53.360Z,45
2016-09-05T11:54:53.255Z,45
2016-09-05T11:55:52.327Z,55
2016-09-05T11:56:51.255Z,70
2016-09-05T11:58:06.720Z,70
2016-09-05T11:58:56.522Z,65
2016-09-05T12:00:35.283Z,50
2016-09-05T12:00:52.120Z,60
2016-09-05T12:01:53.672Z,95
2016-09-05T12:46:20.242Z,15
2016-09-05T12:46:50.710Z,15
2016-09-05T12:47:51.153Z,20
2016-09-05T12:48:51.198Z,20
2016-09-05T12:50:05.519Z,25
2016-09-05T12:50:50.729Z,25
2016-09-05T12:52:05.640Z,30
2016-09-05T12:52:50.630Z,30
2016-09-05T12:53:50.590Z,35
2016-09-05T12:54:50.496Z,35
2016-09-05T12:55:50.538Z,35
2016-09-05T12:56:50.511Z,35
2016-09-05T12:57:51.151Z,35
2016-09-05T12:58:50.792Z,35
2016-09-05T12:59:50.783Z,35
2016-09-05T13:00:52.035Z,35
2016-09-05T13:01:50.345Z,35
2016-09-05T13:02:50.707Z,35
2016-09-05T13:03:50.637Z,35
2016-09-05T13:05:50.558Z,40
2016-09-05T13:06:50.318Z,50
2016-09-05T13:07:50.592Z,50
2016-09-05T13:08:50.571Z,45
2016-09-05T13:09:50.885Z,45
2016-09-05T13:10:50.520Z,45
2016-09-05T13:11:50.125Z,45
2016-09-05T13:12:51.095Z,40
2016-09-05T13:13:50.870Z,45
2016-09-05T13:14:50.221Z,50
2016-09-05T13:15:51.321Z,55
2016-09-05T13:16:50.502Z,50
2016-09-05T13:18:04.751Z,50
2016-09-05T13:18:50.002Z,50
2016-09-05T13:19:49.975Z,45
2016-09-05T13:20:51.537Z,50
2016-09-05T13:21:49.984Z,45
2016-09-05T13:22:50.210Z,45
2016-09-05T13:23:50.310Z,40
2016-09-05T13:25:05.575Z,40
2016-09-05T13:25:49.817Z,35
2016-09-05T13:26:50.419Z,35
2016-09-05T13:27:49.885Z,35
2016-09-05T13:28:49.848Z,35
2016-09-05T13:29:49.965Z,35
2016-09-05T13:30:49.820Z,35
2016-09-05T13:31:50.534Z,40
2016-09-05T13:32:49.744Z,35
2016-09-05T13:33:50.953Z,40
2016-09-05T13:34:50.018Z,40
2016-09-05T13:35:55.432Z,40
2016-09-05T13:36:49.967Z,35
2016-09-05T13:39:19.421Z,40
2016-09-05T13:39:50.259Z,40
2016-09-05T13:40:49.887Z,45
2016-09-05T13:41:49.466Z,50
2016-09-05T13:42:49.481Z,60
2016-09-05T13:43:49.414Z,60
2016-09-05T13:44:49.668Z,55
2016-09-05T13:45:50.243Z,50
2016-09-05T13:46:49.367Z,45
2016-09-05T13:47:49.423Z,55
2016-09-05T13:48:49.679Z,50
2016-09-05T13:49:49.272Z,65
2016-09-05T13:50:50.668Z,65
2016-09-05T13:52:04.324Z,85
2016-09-05T13:52:49.320Z,90
2016-09-05T13:53:49.616Z,50
2016-09-05T13:54:49.388Z,100
2016-09-05T13:55:49.137Z,95
2016-09-05T13:56:49.443Z,45
2016-09-05T13:57:49.032Z,55
2016-09-05T13:58:49.418Z,90
2016-09-05T13:59:49.142Z,65
2016-09-05T14:00:50.337Z,55
2016-09-05T14:01:49.482Z,35
2016-09-05T14:02:49.504Z,30
2016-09-05T14:03:48.914Z,30
2016-09-05T14:04:48.895Z,30
2016-09-05T14:05:49.488Z,45
2016-09-05T14:06:48.891Z,30
2016-09-05T14:07:48.818Z,60
2016-09-05T14:08:49.147Z,25
2016-09-05T14:09:49.052Z,20
2016-09-05T14:10:48.811Z,20
2016-09-05T14:11:48.708Z,20
2016-09-05T14:12:48.754Z,20
2016-09-05T14:13:48.762Z,20
2016-09-05T14:15:03.698Z,20
2016-09-05T14:15:49.464Z,20
2016-09-05T14:16:48.690Z,20
2016-09-05T14:17:48.590Z,20
2016-09-05T14:18:48.616Z,20
2016-09-05T14:19:48.588Z,15
2016-09-05T14:20:48.963Z,15
2016-09-05T14:21:48.555Z,15
2016-09-05T14:22:48.650Z,15
2016-09-05T14:24:03.299Z,15
2016-09-05T14:24:48.467Z,15
2016-09-05T14:25:49.055Z,15
2016-09-05T14:26:49.159Z,10
2016-09-05T14:27:48.378Z,10
2016-09-05T14:28:48.427Z,15
2016-09-05T14:29:48.426Z,15
2016-09-05T14:30:48.337Z,15
2016-09-05T14:31:48.276Z,15
2016-09-05T14:33:03.301Z,15
2016-09-05T14:33:48.647Z,20
2016-09-05T14:34:48.247Z,20
2016-09-05T14:35:48.213Z,20
2016-09-05T14:36:49.156Z,20
2016-09-05T14:37:48.544Z,20
2016-09-05T14:38:48.405Z,25
2016-09-05T14:39:48.101Z,25
2016-09-05T14:40:48.070Z,25
2016-09-05T14:42:02.746Z,30
2016-09-05T14:42:48.042Z,80
2016-09-05T14:43:48.039Z,85
2016-09-05T14:44:48.281Z,40
2016-09-05T14:45:48.008Z,45
2016-09-05T14:46:48.300Z,50
2016-09-05T14:47:48.050Z,50
2016-09-05T14:48:48.376Z,55
2016-09-05T14:49:47.871Z,50
2016-09-05T14:50:48.996Z,50
2016-09-05T14:51:47.793Z,40
2016-09-05T14:52:47.877Z,30
2016-09-05T14:53:47.881Z,25
2016-09-05T14:54:47.762Z,25
2016-09-05T14:55:48.459Z,25
2016-09-05T14:57:02.504Z,20
2016-09-05T14:57:47.959Z,20
2016-09-05T14:58:47.634Z,20
2016-09-05T14:59:48.070Z,30
2016-09-05T15:00:47.647Z,35
2016-09-05T15:01:48.851Z,30
2016-09-05T15:02:47.975Z,35
2016-09-05T15:03:48.579Z,30
2016-09-05T15:04:47.634Z,30
2016-09-05T15:05:47.464Z,30
2016-09-05T15:06:47.982Z,30
2016-09-05T15:07:47.964Z,30
2016-09-05T15:08:47.435Z,40
2016-09-05T15:10:02.871Z,45
2016-09-05T15:10:47.340Z,45
2016-09-05T15:12:02.177Z,45
2016-09-05T15:12:48.014Z,45
2016-09-05T15:14:02.411Z,45
2016-09-05T15:14:47.307Z,45
2016-09-05T15:15:47.826Z,45
2016-09-05T15:16:47.403Z,40
2016-09-05T15:17:47.690Z,40
2016-09-05T15:18:47.871Z,40
2016-09-05T15:19:47.179Z,40
2016-09-05T15:20:47.178Z,40
2016-09-05T15:21:47.795Z,35
2016-09-05T15:22:53.352Z,35
2016-09-05T15:23:47.090Z,35
2016-09-05T15:24:47.199Z,40
2016-09-05T15:25:47.000Z,35
2016-09-05T15:26:47.546Z,35
2016-09-05T15:27:47.251Z,30
2016-09-05T15:29:46.949Z,25
2016-09-05T15:30:47.683Z,25
2016-09-05T15:32:01.624Z,25
2016-09-05T15:33:03.178Z,25
2016-09-05T15:34:01.950Z,25
2016-09-05T15:34:46.809Z,25
2016-09-05T15:36:02.332Z,30
2016-09-05T15:36:46.779Z,25
2016-09-05T15:37:46.756Z,35
2016-09-05T15:38:46.750Z,35
2016-09-05T15:39:46.995Z,30
2016-09-05T15:40:47.441Z,25
2016-09-05T15:41:46.829Z,30
2016-09-05T15:42:46.640Z,25